createdAt,value
2018-04-07T00:01:36.055Z,1.50
2018-04-07T00:04:03.665Z,1.80
2018-04-07T00:06:32.024Z,1.50
2018-04-07T00:08:59.608Z,1.20
2018-04-07T00:11:27.984Z,1.17
2018-04-07T00:13:56.339Z,1.80
2018-04-07T00:16:23.955Z,1.77
2018-04-07T00:18:51.535Z,1.37
2018-04-07T00:21:19.148Z,1.60
2018-04-07T00:23:47.503Z,2.83
2018-04-07T00:26:15.119Z,1.73
2018-04-07T00:28:42.712Z,1.20
2018-04-07T00:31:10.335Z,1.70
2018-04-07T00:33:37.928Z,1.67
2018-04-07T00:36:05.544Z,1.60
2018-04-07T00:38:33.133Z,1.47
2018-04-07T00:41:00.752Z,1.20
2018-04-07T00:43:29.108Z,2.10
2018-04-07T00:45:56.719Z,2.03
2018-04-07T00:48:24.312Z,1.40
2018-04-07T00:50:51.925Z,1.67
2018-04-07T00:53:19.512Z,1.87
2018-04-07T00:55:47.127Z,1.40
2018-04-07T00:58:15.487Z,1.60
2018-04-07T01:00:43.097Z,1.80
2018-04-07T01:03:10.691Z,1.23
2018-04-07T01:05:38.313Z,1.50
2018-04-07T01:08:05.904Z,1.57
2018-04-07T01:10:33.492Z,1.40
2018-04-07T01:13:01.103Z,1.80
2018-04-07T01:15:28.700Z,1.33
2018-04-07T01:17:56.312Z,1.30
2018-04-07T01:20:23.898Z,1.30
2018-04-07T01:22:51.508Z,1.47
2018-04-07T01:25:19.864Z,1.27
2018-04-07T01:27:47.484Z,1.63
2018-04-07T01:30:15.079Z,1.60
2018-04-07T01:32:42.688Z,1.50
2018-04-07T01:35:10.272Z,1.70
2018-04-07T01:37:37.879Z,1.77
2018-04-07T01:40:05.464Z,1.67
2018-04-07T01:42:33.850Z,1.63
2018-04-07T01:45:01.439Z,1.10
2018-04-07T01:47:29.052Z,1.23
2018-04-07T01:49:57.407Z,1.93
2018-04-07T01:52:25.026Z,1.40
2018-04-07T01:54:52.611Z,1.27
2018-04-07T01:57:20.231Z,1.60
2018-04-07T01:59:47.822Z,1.77
2018-04-07T02:02:15.445Z,1.30
2018-04-07T02:04:43.796Z,2.33
2018-04-07T02:07:11.412Z,1.30
2018-04-07T02:09:38.995Z,2.10
2018-04-07T02:12:06.607Z,1.70
2018-04-07T02:14:34.961Z,1.83
2018-04-07T02:17:02.584Z,1.30
2018-04-07T02:19:30.168Z,1.80
2018-04-07T02:21:57.779Z,1.60
2018-04-07T02:24:25.362Z,2.13
2018-04-07T02:26:52.972Z,1.40
2018-04-07T02:29:21.328Z,2.10
2018-04-07T02:31:49.733Z,1.80
2018-04-07T02:34:18.084Z,1.30
2018-04-07T02:36:45.709Z,1.40
2018-04-07T02:39:13.301Z,1.67
2018-04-07T02:41:41.688Z,1.40
2018-04-07T02:44:09.276Z,1.63
2018-04-07T02:46:37.628Z,1.53
2018-04-07T02:49:05.241Z,1.60
2018-04-07T02:51:32.829Z,2.00
2018-04-07T02:54:00.441Z,1.60
2018-04-07T02:56:28.795Z,2.93
2018-04-07T02:58:56.404Z,2.23
2018-04-07T03:01:23.989Z,1.70
2018-04-07T03:03:51.602Z,1.77
2018-04-07T03:06:19.963Z,1.47
2018-04-07T03:08:48.344Z,2.10
2018-04-07T03:11:16.704Z,1.43
2018-04-07T03:13:44.319Z,2.60
2018-04-07T03:16:11.899Z,1.60
2018-04-07T03:18:39.515Z,1.60
2018-04-07T03:21:07.872Z,1.50
2018-04-07T03:23:35.483Z,1.97
2018-04-07T03:26:03.068Z,1.30
2018-04-07T03:28:30.685Z,2.80
2018-04-07T03:30:58.276Z,2.17
2018-04-07T03:33:25.942Z,1.43
2018-04-07T03:35:53.532Z,2.00
2018-04-07T03:38:21.154Z,1.80
2018-04-07T03:40:48.738Z,2.77
2018-04-07T03:43:16.347Z,1.50
2018-04-07T03:45:44.704Z,2.87
2018-04-07T03:48:12.310Z,1.70
2018-04-07T03:50:39.896Z,1.93
2018-04-07T03:53:07.512Z,1.93
2018-04-07T03:55:35.108Z,2.00
2018-04-07T03:58:02.696Z,1.67
2018-04-07T04:00:30.321Z,1.70
2018-04-07T04:02:57.909Z,1.57
2018-04-07T04:05:25.519Z,2.03
2018-04-07T04:07:53.104Z,1.50
2018-04-07T04:10:20.712Z,2.70
2018-04-07T04:12:49.069Z,1.80
2018-04-07T04:15:16.692Z,1.60
2018-04-07T04:17:44.276Z,1.67
2018-04-07T04:20:11.900Z,2.00
2018-04-07T04:22:39.499Z,1.50
2018-04-07T04:25:07.121Z,1.80
2018-04-07T04:27:34.714Z,1.63
2018-04-07T04:30:02.320Z,1.90
2018-04-07T04:32:30.667Z,1.50
2018-04-07T04:34:58.312Z,2.00
2018-04-07T04:37:25.896Z,1.90
2018-04-07T04:39:53.520Z,1.40
2018-04-07T04:42:21.111Z,1.70
2018-04-07T04:44:48.730Z,1.50
2018-04-07T04:47:16.310Z,2.33
2018-04-07T04:49:43.920Z,2.37
2018-04-07T04:52:12.274Z,1.73
2018-04-07T04:54:39.881Z,1.67
2018-04-07T04:57:07.464Z,1.80
2018-04-07T04:59:35.091Z,1.50
2018-04-07T05:02:03.445Z,1.70
2018-04-07T05:04:31.059Z,1.80
2018-04-07T05:06:58.652Z,2.37
2018-04-07T05:09:26.276Z,1.70
2018-04-07T05:11:53.863Z,1.50
2018-04-07T05:14:21.472Z,1.60
2018-04-07T05:16:49.820Z,1.50
2018-04-07T05:19:17.435Z,2.10
2018-04-07T05:21:45.028Z,2.30
2018-04-07T05:24:12.670Z,1.70
2018-04-07T05:26:40.264Z,2.60
2018-04-07T05:29:08.652Z,1.77
2018-04-07T05:31:36.244Z,1.70
2018-04-07T05:34:03.937Z,1.80
2018-04-07T05:36:31.527Z,2.57
2018-04-07T05:38:59.140Z,1.90
2018-04-07T05:41:26.728Z,2.10
2018-04-07T05:43:54.340Z,1.90
2018-04-07T05:46:22.691Z,2.37
2018-04-07T05:48:50.300Z,2.83
2018-04-07T05:51:17.931Z,1.80
2018-04-07T05:53:46.312Z,2.77
2018-04-07T05:56:14.665Z,2.10
2018-04-07T05:58:42.285Z,1.47
2018-04-07T06:01:09.872Z,2.47
2018-04-07T06:03:37.492Z,2.60
2018-04-07T06:06:05.112Z,2.10
2018-04-07T06:08:32.707Z,2.90
2018-04-07T06:11:00.324Z,2.40
2018-04-07T06:13:27.921Z,2.37
2018-04-07T06:15:55.549Z,2.40
2018-04-07T06:18:23.139Z,2.63
2018-04-07T06:20:51.529Z,1.33
2018-04-07T06:23:19.128Z,1.83
2018-04-07T06:25:46.744Z,2.40
2018-04-07T06:28:14.328Z,2.70
2018-04-07T06:30:41.943Z,2.80
2018-04-07T06:33:09.530Z,2.70
2018-04-07T06:35:37.263Z,1.90
2018-04-07T06:38:04.856Z,1.83
2018-04-07T06:40:32.464Z,2.27
2018-04-07T06:43:00.082Z,2.40
2018-04-07T06:45:27.684Z,1.87
2018-04-07T06:47:55.300Z,2.40
2018-04-07T06:50:22.886Z,2.37
2018-04-07T06:52:50.508Z,3.07
2018-04-07T06:55:18.877Z,2.50
2018-04-07T06:57:47.232Z,2.10
2018-04-07T07:00:14.846Z,3.50
2018-04-07T07:02:42.441Z,3.07
2018-04-07T07:05:10.067Z,2.03
2018-04-07T07:07:37.657Z,2.50
2018-04-07T07:10:05.267Z,1.40
2018-04-07T07:12:33.628Z,3.20
2018-04-07T07:15:01.249Z,2.13
2018-04-07T07:17:28.839Z,3.10
2018-04-07T07:19:56.460Z,2.60
2018-04-07T07:22:24.057Z,1.63
2018-04-07T07:24:51.678Z,2.50
2018-04-07T07:27:19.276Z,2.70
2018-04-07T07:29:46.892Z,2.30
2018-04-07T07:32:14.485Z,1.50
2018-04-07T07:34:42.104Z,2.67
2018-04-07T07:37:09.704Z,3.47
2018-04-07T07:39:37.322Z,3.60
2018-04-07T07:42:04.952Z,3.50
2018-04-07T07:44:33.355Z,2.23
2018-04-07T07:47:01.717Z,3.00
2018-04-07T07:49:30.113Z,3.40
2018-04-07T07:51:58.465Z,3.10
2018-04-07T07:54:26.093Z,2.83
2018-04-07T07:56:53.693Z,2.10
2018-04-07T07:59:22.078Z,2.63
2018-04-07T08:01:50.436Z,2.77
2018-04-07T08:04:18.056Z,2.90
2018-04-07T08:06:45.645Z,3.33
2018-04-07T08:09:13.270Z,3.07
2018-04-07T08:11:40.860Z,1.90
2018-04-07T08:14:08.461Z,3.17
2018-04-07T08:16:36.857Z,3.40
2018-04-07T08:19:04.479Z,3.20
2018-04-07T08:21:32.076Z,2.50
2018-04-07T08:23:59.705Z,4.13
2018-04-07T08:26:27.321Z,1.93
2018-04-07T08:28:54.939Z,2.83
2018-04-07T08:31:23.299Z,3.23
2018-04-07T08:33:50.911Z,3.40
2018-04-07T08:36:18.504Z,4.17
2018-04-07T08:38:46.128Z,4.47
2018-04-07T08:41:13.729Z,2.47
2018-04-07T08:43:41.345Z,3.03
2018-04-07T08:46:08.945Z,4.30
2018-04-07T08:48:36.564Z,3.17
2018-04-07T08:51:04.213Z,3.80
2018-04-07T08:53:31.790Z,2.03
2018-04-07T08:55:59.403Z,2.60
2018-04-07T08:58:28.496Z,2.97
2018-04-07T09:00:56.787Z,3.90
2018-04-07T09:03:24.413Z,3.57
2018-04-07T09:05:52.036Z,2.57
2018-04-07T09:08:20.396Z,5.00
2018-04-07T09:10:48.877Z,3.40
2018-04-07T09:13:16.466Z,3.67
2018-04-07T09:15:44.084Z,3.07
2018-04-07T09:18:11.676Z,4.53
2018-04-07T09:20:40.062Z,4.00
2018-04-07T09:23:07.660Z,3.40
2018-04-07T09:25:35.275Z,3.83
2018-04-07T09:28:03.632Z,3.00
2018-04-07T09:30:31.248Z,4.00
2018-04-07T09:32:58.919Z,4.00
2018-04-07T09:35:26.536Z,4.57
2018-04-07T09:37:54.897Z,4.47
2018-04-07T09:40:22.508Z,4.17
2018-04-07T09:42:50.091Z,4.10
2018-04-07T09:45:17.704Z,4.77
2018-04-07T09:47:45.292Z,3.73
2018-04-07T09:50:12.900Z,3.83
2018-04-07T09:52:40.489Z,5.33
2018-04-07T09:55:08.107Z,4.30
2018-04-07T09:57:35.699Z,4.50
2018-04-07T10:00:04.085Z,4.33
2018-04-07T10:02:35.651Z,5.20
2018-04-07T10:05:03.281Z,3.80
2018-04-07T10:07:31.635Z,4.20
2018-04-07T10:09:59.219Z,5.00
2018-04-07T10:12:27.605Z,5.90
2018-04-07T10:14:55.960Z,5.80
2018-04-07T10:17:23.622Z,4.30
2018-04-07T10:19:51.233Z,5.10
2018-04-07T10:22:18.844Z,4.20
2018-04-07T10:24:46.440Z,4.90
2018-04-07T10:27:14.056Z,3.53
2018-04-07T10:29:41.648Z,4.00
2018-04-07T10:32:10.030Z,4.90
2018-04-07T10:34:38.384Z,3.93
2018-04-07T10:37:05.991Z,4.90
2018-04-07T10:39:33.584Z,5.30
2018-04-07T10:42:01.233Z,6.10
2018-04-07T10:44:28.851Z,5.57
2018-04-07T10:46:57.211Z,3.40
2018-04-07T10:49:25.616Z,6.13
2018-04-07T10:51:53.213Z,6.10
2018-04-07T10:54:20.877Z,5.03
2018-04-07T10:56:48.478Z,6.27
2018-04-07T10:59:16.840Z,4.43
2018-04-07T11:01:44.455Z,5.27
2018-04-07T11:04:12.050Z,4.90
2018-04-07T11:06:39.796Z,4.67
2018-04-07T11:09:07.392Z,4.47
2018-04-07T11:11:35.021Z,5.57
2018-04-07T11:14:02.682Z,5.30
2018-04-07T11:16:30.305Z,5.50
2018-04-07T11:18:58.670Z,4.43
2018-04-07T11:21:27.061Z,5.57
2018-04-07T11:23:55.424Z,5.97
2018-04-07T11:26:23.788Z,4.33
2018-04-07T11:28:51.408Z,5.10
2018-04-07T11:31:19.008Z,5.17
2018-04-07T11:33:46.644Z,5.20
2018-04-07T11:36:14.228Z,5.80
2018-04-07T11:38:41.821Z,3.83
2018-04-07T11:41:10.205Z,5.50
2018-04-07T11:43:37.794Z,5.70
2018-04-07T11:46:05.405Z,4.77
2018-04-07T11:48:33.843Z,4.00
2018-04-07T11:51:01.436Z,5.33
2018-04-07T11:53:29.047Z,5.93
2018-04-07T11:55:56.634Z,4.77
2018-04-07T11:58:24.244Z,5.03
2018-04-07T12:00:52.591Z,4.10
2018-04-07T12:03:20.985Z,5.10
2018-04-07T12:05:49.342Z,4.50
2018-04-07T12:08:16.970Z,4.30
2018-04-07T12:10:44.563Z,5.03
2018-04-07T12:13:12.916Z,5.57
2018-04-07T12:15:40.541Z,3.90
2018-04-07T12:18:08.139Z,6.50
2018-04-07T12:20:35.728Z,5.57
2018-04-07T12:23:03.355Z,3.90
2018-04-07T12:25:30.944Z,4.97
2018-04-07T12:27:58.576Z,4.63
2018-04-07T12:30:26.747Z,2.70
2018-04-07T12:32:54.360Z,5.83
2018-04-07T12:35:21.951Z,5.07
2018-04-07T12:37:49.564Z,5.00
2018-04-07T12:40:17.920Z,4.60
2018-04-07T12:42:45.527Z,4.73
2018-04-07T12:45:13.884Z,4.40
2018-04-07T12:47:41.516Z,5.57
2018-04-07T12:50:09.099Z,4.43
2018-04-07T12:52:36.719Z,5.20
2018-04-07T12:55:04.304Z,5.87
2018-04-07T12:57:31.930Z,5.47
2018-04-07T12:59:59.518Z,4.57
2018-04-07T13:02:27.128Z,4.10
2018-04-07T13:04:55.492Z,4.40
2018-04-07T13:07:23.130Z,4.30
2018-04-07T13:09:50.720Z,4.77
2018-04-07T13:12:18.332Z,5.70
2018-04-07T13:14:45.916Z,5.07
2018-04-07T13:17:13.528Z,6.50
2018-04-07T13:19:41.127Z,4.13
2018-04-07T13:22:08.735Z,5.30
2018-04-07T13:24:37.080Z,5.07
2018-04-07T13:27:04.697Z,5.50
2018-04-07T13:29:32.282Z,4.53
2018-04-07T13:31:59.908Z,4.47
2018-04-07T13:34:27.503Z,3.83
2018-04-07T13:36:55.115Z,3.93
2018-04-07T13:39:23.463Z,5.73
2018-04-07T13:41:51.092Z,6.43
2018-04-07T13:44:18.687Z,5.80
2018-04-07T13:46:46.280Z,6.13
2018-04-07T13:49:14.660Z,5.03
2018-04-07T13:51:43.014Z,7.07
2018-04-07T13:54:10.632Z,6.07
2018-04-07T13:56:38.223Z,3.70
2018-04-07T13:59:05.836Z,4.93
2018-04-07T14:01:33.425Z,4.67
2018-04-07T14:04:01.082Z,4.53
2018-04-07T14:06:28.864Z,4.67
2018-04-07T14:08:57.123Z,4.37
2018-04-07T14:11:24.888Z,5.10
2018-04-07T14:13:52.952Z,6.70
2018-04-07T14:16:20.577Z,4.83
2018-04-07T14:18:48.933Z,4.30
2018-04-07T14:21:16.565Z,5.53
2018-04-07T14:23:44.212Z,5.60
2018-04-07T14:26:11.837Z,7.27
2018-04-07T14:28:40.191Z,5.33
2018-04-07T14:31:07.813Z,4.57
2018-04-07T14:33:35.413Z,5.13
2018-04-07T14:36:03.035Z,5.90
2018-04-07T14:38:30.630Z,4.70
2018-04-07T14:40:58.219Z,5.37
2018-04-07T14:43:26.615Z,6.17
2018-04-07T14:45:54.204Z,7.30
2018-04-07T14:48:21.802Z,7.30
2018-04-07T14:50:49.437Z,6.20
2018-04-07T14:53:17.090Z,6.90
2018-04-07T14:55:44.874Z,6.07
2018-04-07T14:58:12.468Z,6.90
2018-04-07T15:00:40.860Z,6.57
2018-04-07T15:03:08.445Z,5.63
2018-04-07T15:05:36.048Z,5.13
2018-04-07T15:08:05.164Z,5.37
2018-04-07T15:10:32.771Z,4.47
2018-04-07T15:13:00.395Z,8.27
2018-04-07T15:15:27.993Z,6.50
2018-04-07T15:17:55.611Z,6.20
2018-04-07T15:20:23.965Z,5.00
2018-04-07T15:22:52.353Z,6.20
2018-04-07T15:25:19.947Z,4.87
2018-04-07T15:27:47.575Z,4.70
2018-04-07T15:30:15.934Z,8.37
2018-04-07T15:32:43.529Z,6.57
2018-04-07T15:35:11.911Z,5.80
2018-04-07T15:37:39.503Z,6.10
2018-04-07T15:40:07.130Z,6.73
2018-04-07T15:42:35.484Z,5.37
2018-04-07T15:45:03.133Z,6.43
2018-04-07T15:47:30.766Z,6.77
2018-04-07T15:49:58.351Z,6.33
2018-04-07T15:52:25.935Z,5.70
2018-04-07T15:54:54.320Z,5.10
2018-04-07T15:57:22.673Z,5.73
2018-04-07T15:59:50.264Z,7.13
2018-04-07T16:02:18.647Z,7.90
2018-04-07T16:04:47.003Z,6.80
2018-04-07T16:07:14.629Z,7.33
2018-04-07T16:09:42.220Z,6.27
2018-04-07T16:12:10.036Z,5.90
2018-04-07T16:14:37.639Z,6.30
2018-04-07T16:17:05.263Z,6.93
2018-04-07T16:19:32.912Z,5.83
2018-04-07T16:22:00.532Z,4.97
2018-04-07T16:24:28.159Z,5.27
2018-04-07T16:26:55.776Z,6.13
2018-04-07T16:29:24.150Z,5.87
2018-04-07T16:31:52.568Z,7.10
2018-04-07T16:34:20.175Z,5.87
2018-04-07T16:36:47.801Z,6.57
2018-04-07T16:39:15.460Z,5.73
2018-04-07T16:41:43.097Z,3.40
2018-04-07T16:44:10.859Z,5.57
2018-04-07T16:46:38.521Z,6.53
2018-04-07T16:49:06.121Z,7.43
2018-04-07T16:51:33.703Z,4.93
2018-04-07T16:54:01.328Z,5.00
2018-04-07T16:56:28.939Z,4.63
2018-04-07T16:58:57.292Z,5.30
2018-04-07T17:01:24.916Z,6.40
2018-04-07T17:03:52.516Z,4.80
2018-04-07T17:06:20.135Z,4.20
2018-04-07T17:08:47.718Z,4.67
2018-04-07T17:11:15.333Z,5.20
2018-04-07T17:13:42.926Z,5.80
2018-04-07T17:16:10.545Z,6.30
2018-04-07T17:18:38.899Z,5.90
2018-04-07T17:21:06.521Z,5.90
2018-04-07T17:23:34.115Z,6.73
2018-04-07T17:26:01.751Z,6.00
2018-04-07T17:28:29.348Z,4.83
2018-04-07T17:30:56.976Z,4.23
2018-04-07T17:33:24.599Z,5.47
2018-04-07T17:35:52.956Z,5.00
2018-04-07T17:38:20.730Z,4.27
2018-04-07T17:40:49.093Z,5.80
2018-04-07T17:43:16.760Z,6.20
2018-04-07T17:45:44.349Z,5.37
2018-04-07T17:48:11.951Z,5.00
2018-04-07T17:50:39.572Z,3.57
2018-04-07T17:53:07.166Z,5.63
2018-04-07T17:55:34.756Z,5.00
2018-04-07T17:58:02.394Z,4.30
2018-04-07T18:00:29.993Z,6.20
2018-04-07T18:02:58.372Z,6.10
2018-04-07T18:05:26.724Z,4.93
2018-04-07T18:07:54.339Z,5.60
2018-04-07T18:10:21.940Z,5.30
2018-04-07T18:12:49.569Z,6.73
2018-04-07T18:15:17.169Z,6.57
2018-04-07T18:17:44.794Z,6.87
2018-04-07T18:20:12.394Z,7.70
2018-04-07T18:22:39.988Z,6.70
2018-04-07T18:25:08.438Z,7.33
2018-04-07T18:27:36.000Z,5.47
2018-04-07T18:30:03.623Z,9.13
2018-04-07T18:32:31.212Z,4.90
2018-04-07T18:34:58.836Z,8.60
2018-04-07T18:37:26.424Z,5.20
2018-04-07T18:39:54.029Z,6.77
2018-04-07T18:42:22.409Z,8.13
2018-04-07T18:44:50.760Z,7.50
2018-04-07T18:47:18.375Z,7.37
2018-04-07T18:49:45.962Z,5.33
2018-04-07T18:52:13.885Z,7.83
2018-04-07T18:54:41.508Z,7.60
2018-04-07T18:57:09.129Z,6.40
2018-04-07T18:59:37.005Z,6.50
2018-04-07T19:02:04.627Z,6.63
2018-04-07T19:04:32.222Z,7.17
2018-04-07T19:06:59.841Z,7.70
2018-04-07T19:09:28.317Z,6.80
2018-04-07T19:11:56.854Z,7.17
2018-04-07T19:14:24.907Z,5.63
2018-04-07T19:16:52.889Z,6.90
2018-04-07T19:19:20.847Z,5.80
2018-04-07T19:21:48.457Z,7.20
2018-04-07T19:24:16.080Z,8.70
2018-04-07T19:26:43.846Z,8.00
2018-04-07T19:29:11.982Z,7.27
2018-04-07T19:31:39.885Z,6.20
2018-04-07T19:34:08.309Z,7.83
2018-04-07T19:36:37.257Z,7.13
2018-04-07T19:39:04.892Z,8.20
2018-04-07T19:41:32.732Z,6.80
2018-04-07T19:44:01.100Z,8.63
2018-04-07T19:46:28.749Z,7.10
2018-04-07T19:48:56.346Z,6.40
2018-04-07T19:51:24.705Z,7.87
2018-04-07T19:53:52.337Z,6.57
2018-04-07T19:56:20.465Z,5.40
2018-04-07T19:58:48.263Z,6.17
2018-04-07T20:01:15.937Z,6.37
2018-04-07T20:03:43.561Z,4.97
2018-04-07T20:06:11.193Z,5.20
2018-04-07T20:08:39.040Z,5.10
2018-04-07T20:11:07.699Z,10.63
2018-04-07T20:13:36.211Z,6.83
2018-04-07T20:16:04.053Z,7.80
2018-04-07T20:18:31.643Z,7.40
2018-04-07T20:20:59.316Z,6.53
2018-04-07T20:23:27.708Z,5.83
2018-04-07T20:25:56.095Z,8.32
2018-04-07T20:28:24.201Z,6.90
2018-04-07T20:30:52.791Z,5.53
2018-04-07T20:33:20.858Z,6.73
2018-04-07T20:35:48.456Z,6.80
2018-04-07T20:38:16.234Z,5.90
2018-04-07T20:40:49.992Z,5.23
2018-04-07T20:43:18.533Z,5.23
2018-04-07T20:45:46.127Z,6.43
2018-04-07T20:48:13.724Z,6.57
2018-04-07T20:50:41.357Z,6.53
2018-04-07T20:53:09.217Z,8.37
2018-04-07T20:55:37.102Z,7.30
2018-04-07T20:58:04.745Z,6.03
2018-04-07T21:00:32.339Z,7.10
2018-04-07T21:02:59.962Z,5.10
2018-04-07T21:05:27.553Z,6.50
2018-04-07T21:07:55.176Z,5.43
2018-04-07T21:10:22.764Z,7.10
2018-04-07T21:12:50.379Z,6.70
2018-04-07T21:15:17.972Z,6.67
2018-04-07T21:17:45.595Z,5.80
2018-04-07T21:20:13.951Z,6.40
2018-04-07T21:22:41.538Z,5.80
2018-04-07T21:25:09.166Z,7.33
2018-04-07T21:27:37.556Z,6.70
2018-04-07T21:30:05.946Z,8.37
2018-04-07T21:32:34.309Z,8.20
2018-04-07T21:35:01.933Z,8.77
2018-04-07T21:37:29.532Z,7.00
2018-04-07T21:39:57.140Z,6.23
2018-04-07T21:42:24.737Z,8.10
2018-04-07T21:44:52.362Z,6.93
2018-04-07T21:47:19.951Z,7.57
2018-04-07T21:49:47.536Z,8.60
2018-04-07T21:52:15.170Z,9.47
2018-04-07T21:54:42.761Z,6.23
2018-04-07T21:57:11.127Z,5.97
2018-04-07T21:59:38.760Z,7.40
2018-04-07T22:02:06.390Z,7.00
2018-04-07T22:04:33.984Z,6.90
2018-04-07T22:07:01.604Z,6.57
2018-04-07T22:09:29.226Z,8.50
2018-04-07T22:11:56.827Z,7.53
2018-04-07T22:14:24.448Z,8.07
2018-04-07T22:16:52.034Z,7.80
2018-04-07T22:19:20.426Z,6.90
2018-04-07T22:21:48.028Z,9.17
2018-04-07T22:24:15.655Z,6.80
2018-04-07T22:26:44.128Z,7.20
2018-04-07T22:29:12.511Z,7.27
2018-04-07T22:31:40.100Z,6.90
2018-04-07T22:34:07.730Z,7.40
2018-04-07T22:36:35.347Z,7.70
2018-04-07T22:39:02.936Z,9.90
2018-04-07T22:41:31.326Z,8.67
2018-04-07T22:43:58.921Z,7.93
2018-04-07T22:46:26.523Z,7.67
2018-04-07T22:48:54.144Z,8.70
2018-04-07T22:51:21.727Z,7.40
2018-04-07T22:53:49.344Z,6.80
2018-04-07T22:56:16.927Z,9.90
2018-04-07T22:58:44.525Z,9.07
2018-04-07T23:01:12.141Z,7.60
2018-04-07T23:03:39.746Z,9.20
2018-04-07T23:06:07.371Z,7.73
2018-04-07T23:08:34.967Z,8.50
2018-04-07T23:11:02.560Z,8.03
2018-04-07T23:13:30.458Z,6.73
2018-04-07T23:15:58.048Z,8.30
2018-04-07T23:18:25.674Z,9.73
2018-04-07T23:20:53.268Z,9.20
2018-04-07T23:23:20.851Z,9.10
2018-04-07T23:25:49.249Z,9.40
2018-04-07T23:28:16.841Z,10.37
2018-04-07T23:30:44.436Z,9.10
2018-04-07T23:33:12.053Z,8.00
2018-04-07T23:35:39.635Z,8.50
2018-04-07T23:38:07.255Z,8.10
2018-04-07T23:40:34.848Z,9.53
2018-04-07T23:43:02.468Z,8.03
2018-04-07T23:45:30.104Z,10.83
2018-04-07T23:47:58.455Z,7.80
2018-04-07T23:50:26.052Z,9.70
2018-04-07T23:52:54.480Z,8.20
2018-04-07T23:55:22.067Z,9.73
2018-04-07T23:57:49.655Z,7.90
